createdAt,value
2022-12-09T00:04:41.285Z,4.90
2022-12-09T00:09:33.377Z,4.90
2022-12-09T00:14:25.364Z,4.90
2022-12-09T00:19:17.799Z,4.90
2022-12-09T00:24:13.770Z,4.80
2022-12-09T00:29:06.302Z,4.90
2022-12-09T00:34:00.888Z,4.90
2022-12-09T00:38:54.605Z,4.80
2022-12-09T00:43:46.959Z,4.80
2022-12-09T00:48:39.728Z,4.70
2022-12-09T00:53:32.120Z,4.70
2022-12-09T00:58:24.437Z,4.70
2022-12-09T01:03:18.184Z,4.70
2022-12-09T01:08:11.845Z,4.70
2022-12-09T01:13:04.470Z,4.70
2022-12-09T01:17:59.789Z,4.70
2022-12-09T01:22:52.008Z,4.70
2022-12-09T01:27:44.313Z,4.60
2022-12-09T01:32:36.593Z,4.50
2022-12-09T01:37:29.456Z,4.60
2022-12-09T01:42:23.529Z,4.60
2022-12-09T01:47:22.972Z,4.70
2022-12-09T01:52:23.143Z,4.70
2022-12-09T01:57:16.508Z,4.60
2022-12-09T02:02:13.713Z,4.60
2022-12-09T02:07:40.565Z,4.70
2022-12-09T02:40:22.549Z,4.70
2022-12-09T02:45:16.368Z,4.60
2022-12-09T02:50:16.151Z,4.60
2022-12-09T02:55:12.522Z,4.50
2022-12-09T03:00:07.461Z,4.60
2022-12-09T03:05:08.757Z,4.60
2022-12-09T03:10:12.126Z,4.50
2022-12-09T03:15:07.549Z,4.50
2022-12-09T03:20:13.206Z,4.50
2022-12-09T03:25:14.179Z,4.50
2022-12-09T03:30:10.038Z,4.60
2022-12-09T03:35:10.934Z,4.60
2022-12-09T03:40:09.909Z,4.50
2022-12-09T03:45:10.882Z,4.50
2022-12-09T03:50:03.469Z,4.50
2022-12-09T03:55:06.056Z,4.50
2022-12-09T04:00:01.694Z,4.50
2022-12-09T04:04:54.219Z,4.50
2022-12-09T04:09:46.353Z,4.50
2022-12-09T04:14:38.531Z,4.40
2022-12-09T04:19:30.816Z,4.40
2022-12-09T04:24:25.149Z,4.40
2022-12-09T04:29:17.158Z,4.40
2022-12-09T04:34:10.043Z,4.30
2022-12-09T04:39:02.342Z,4.40
2022-12-09T04:43:54.302Z,4.40
2022-12-09T04:48:46.523Z,4.40
2022-12-09T04:53:38.847Z,4.40
2022-12-09T04:58:31.194Z,4.40
2022-12-09T05:03:23.987Z,4.30
2022-12-09T05:08:16.716Z,4.40
2022-12-09T05:13:08.855Z,4.40
2022-12-09T05:18:02.819Z,4.50
2022-12-09T05:22:56.640Z,4.50
2022-12-09T05:27:49.281Z,4.50
2022-12-09T05:32:42.095Z,4.60
2022-12-09T05:37:34.523Z,4.60
2022-12-09T05:42:26.953Z,4.60
2022-12-09T05:47:19.233Z,4.60
2022-12-09T05:52:14.509Z,4.60
2022-12-09T05:57:07.360Z,4.60
2022-12-09T06:02:01.457Z,4.60
2022-12-09T06:06:57.244Z,4.50
2022-12-09T06:11:49.826Z,4.50
2022-12-09T06:16:42.363Z,4.50
2022-12-09T06:21:34.854Z,4.50
2022-12-09T06:26:30.070Z,4.40
2022-12-09T06:31:23.399Z,4.40
2022-12-09T06:36:16.185Z,4.40
2022-12-09T06:41:09.916Z,4.50
2022-12-09T06:46:02.532Z,4.50
2022-12-09T06:50:54.558Z,4.50
2022-12-09T06:55:47.519Z,4.50
2022-12-09T07:00:40.525Z,4.40
2022-12-09T07:05:32.862Z,4.40
2022-12-09T07:10:25.293Z,4.50
2022-12-09T07:15:18.170Z,4.50
2022-12-09T07:20:11.185Z,4.50
2022-12-09T07:25:04.489Z,4.50
2022-12-09T07:29:58.417Z,4.50
2022-12-09T07:34:51.020Z,4.70
2022-12-09T07:39:43.072Z,4.90
2022-12-09T07:44:35.724Z,4.90
2022-12-09T07:49:28.261Z,5.10
2022-12-09T07:54:21.353Z,5.30
2022-12-09T07:59:14.697Z,5.50
2022-12-09T08:04:08.332Z,5.70
2022-12-09T08:09:02.971Z,6.10
2022-12-09T08:14:10.436Z,6.60
2022-12-09T08:19:03.800Z,6.80
2022-12-09T08:23:59.141Z,6.90
2022-12-09T08:28:51.693Z,6.80
2022-12-09T08:33:44.164Z,6.50
2022-12-09T08:38:36.478Z,6.40
2022-12-09T08:43:29.021Z,6.40
2022-12-09T08:48:21.413Z,6.10
2022-12-09T08:53:13.881Z,6.10
2022-12-09T08:58:05.908Z,6.10
2022-12-09T09:02:58.289Z,6.00
2022-12-09T09:07:50.538Z,6.10
2022-12-09T09:12:44.869Z,6.40
2022-12-09T09:17:37.592Z,7.90
2022-12-09T09:22:29.880Z,9.10
2022-12-09T09:27:22.423Z,8.80
2022-12-09T09:32:14.933Z,8.40
2022-12-09T09:37:07.016Z,8.60
2022-12-09T09:42:08.263Z,9.50
2022-12-09T09:47:05.588Z,10.20
2022-12-09T09:51:59.314Z,10.80
2022-12-09T09:57:14.858Z,10.40
2022-12-09T10:02:13.056Z,10.10
2022-12-09T10:07:25.028Z,10.00
2022-12-09T10:12:24.599Z,9.80
2022-12-09T10:17:19.694Z,8.40
2022-12-09T10:22:20.722Z,7.30
2022-12-09T10:27:45.302Z,6.80
2022-12-09T10:32:39.236Z,6.70
2022-12-09T10:37:32.405Z,6.60
2022-12-09T10:42:45.569Z,6.70
2022-12-09T10:47:38.070Z,7.40
2022-12-09T10:52:39.794Z,7.80
2022-12-09T10:57:32.059Z,8.90
2022-12-09T11:02:25.552Z,9.50
2022-12-09T11:07:36.523Z,10.10
2022-12-09T11:12:32.021Z,9.70
2022-12-09T11:17:30.840Z,8.90
2022-12-09T11:22:41.839Z,8.20
2022-12-09T11:27:36.156Z,7.80
2022-12-09T11:32:28.426Z,7.70
2022-12-09T11:37:20.552Z,8.00
2022-12-09T11:42:19.467Z,8.60
2022-12-09T11:47:20.383Z,8.20
2022-12-09T11:52:18.201Z,8.30
2022-12-09T11:57:33.356Z,8.30
2022-12-09T12:02:30.805Z,8.10
2022-12-09T12:07:31.099Z,7.70
2022-12-09T12:12:35.480Z,7.40
2022-12-09T12:17:36.777Z,7.20
2022-12-09T12:22:28.743Z,7.10
2022-12-09T12:27:35.642Z,6.90
2022-12-09T12:33:11.846Z,6.70
2022-12-09T12:38:18.524Z,6.60
2022-12-09T12:43:50.784Z,6.40
2022-12-09T12:48:45.572Z,6.50
2022-12-09T12:54:15.211Z,6.40
2022-12-09T12:59:27.741Z,6.50
2022-12-09T13:04:38.514Z,6.40
2022-12-09T13:09:39.463Z,6.30
2022-12-09T13:14:39.346Z,5.90
2022-12-09T13:19:41.568Z,5.70
2022-12-09T13:24:48.993Z,5.50
2022-12-09T13:29:52.695Z,5.60
2022-12-09T13:34:54.381Z,5.70
2022-12-09T13:39:49.388Z,5.60
2022-12-09T13:44:41.417Z,5.50
2022-12-09T13:49:39.189Z,5.50
2022-12-09T13:54:31.346Z,5.50
2022-12-09T13:59:40.126Z,5.30
2022-12-09T14:04:42.846Z,5.20
2022-12-09T14:09:47.246Z,5.10
2022-12-09T14:14:54.302Z,5.00
2022-12-09T14:19:52.246Z,4.90
2022-12-09T14:24:49.415Z,5.00
2022-12-09T14:29:54.712Z,5.00
2022-12-09T14:34:59.056Z,5.00
2022-12-09T14:40:05.954Z,5.00
2022-12-09T14:45:20.718Z,4.90
2022-12-09T14:50:19.202Z,4.80
2022-12-09T14:55:16.352Z,4.70
2022-12-09T15:00:25.524Z,4.50
2022-12-09T15:05:17.994Z,4.40
2022-12-09T15:10:22.599Z,4.30
2022-12-09T15:15:27.532Z,4.10
2022-12-09T15:20:40.837Z,4.00
2022-12-09T15:25:36.214Z,3.90
2022-12-09T15:30:32.059Z,3.80
2022-12-09T15:35:27.141Z,3.70
2022-12-09T15:40:22.496Z,3.70
2022-12-09T15:45:19.167Z,3.60
2022-12-09T15:50:26.481Z,3.50
2022-12-09T15:55:51.378Z,3.50
2022-12-09T16:00:48.728Z,3.60
2022-12-09T16:05:42.159Z,3.80
2022-12-09T16:10:49.077Z,3.80
2022-12-09T16:15:53.601Z,3.80
2022-12-09T16:21:14.839Z,3.80
2022-12-09T16:26:07.743Z,3.80
2022-12-09T16:31:03.064Z,3.80
2022-12-09T16:36:06.782Z,3.70
2022-12-09T16:41:01.411Z,3.70
2022-12-09T16:45:56.310Z,3.70
2022-12-09T16:50:51.137Z,3.50
2022-12-09T16:56:00.680Z,3.50
2022-12-09T17:00:54.128Z,3.60
2022-12-09T17:05:47.890Z,3.60
2022-12-09T17:10:41.644Z,3.60
2022-12-09T17:15:33.694Z,3.60
2022-12-09T17:20:25.675Z,3.60
2022-12-09T17:25:18.961Z,3.40
2022-12-09T17:30:11.547Z,3.50
2022-12-09T17:35:07.437Z,3.40
2022-12-09T17:40:05.363Z,3.30
2022-12-09T17:44:57.364Z,3.30
2022-12-09T17:49:49.419Z,3.20
2022-12-09T17:54:41.454Z,3.10
2022-12-09T17:59:33.395Z,3.10
2022-12-09T18:04:25.435Z,3.20
2022-12-09T18:09:19.821Z,3.20
2022-12-09T18:14:11.928Z,3.30
2022-12-09T18:19:06.293Z,3.30
2022-12-09T18:23:58.336Z,3.50
2022-12-09T18:28:54.369Z,3.60
2022-12-09T18:33:46.786Z,3.50
2022-12-09T18:38:40.042Z,3.50
2022-12-09T18:43:36.355Z,3.40
2022-12-09T18:48:28.605Z,3.60
2022-12-09T18:53:20.530Z,3.70
2022-12-09T18:58:12.533Z,3.70
2022-12-09T19:03:04.519Z,3.70
2022-12-09T19:07:56.542Z,3.80
2022-12-09T19:12:52.645Z,3.80
2022-12-09T19:17:48.347Z,3.80
2022-12-09T19:22:40.387Z,3.90
2022-12-09T19:27:32.413Z,3.80
2022-12-09T19:32:51.995Z,3.80
2022-12-09T19:37:36.376Z,3.80
2022-12-09T19:42:28.341Z,3.80
2022-12-09T19:47:20.346Z,3.80
2022-12-09T19:52:12.909Z,3.80
2022-12-09T19:57:04.908Z,3.70
2022-12-09T20:01:56.963Z,3.80
2022-12-09T20:06:49.161Z,3.80
2022-12-09T20:11:42.208Z,3.80
2022-12-09T20:16:34.643Z,3.80
2022-12-09T20:21:28.757Z,3.90
2022-12-09T20:26:24.277Z,3.90
2022-12-09T20:31:24.355Z,3.90
2022-12-09T20:36:19.374Z,3.90
2022-12-09T20:41:13.284Z,3.90
2022-12-09T20:46:10.758Z,3.90
2022-12-09T20:51:06.771Z,3.80
2022-12-09T20:55:59.778Z,3.80
2022-12-09T21:00:54.222Z,3.90
2022-12-09T21:05:47.013Z,3.90
2022-12-09T21:10:39.249Z,3.90
2022-12-09T21:15:31.272Z,3.80
2022-12-09T21:20:23.384Z,3.70
2022-12-09T21:25:15.724Z,3.70
2022-12-09T21:30:09.764Z,3.80
2022-12-09T21:35:02.180Z,3.80
2022-12-09T21:39:54.531Z,3.70
2022-12-09T21:44:46.613Z,3.80
2022-12-09T21:49:38.774Z,3.70
2022-12-09T21:54:30.694Z,3.60
2022-12-09T21:59:22.660Z,3.60
2022-12-09T22:04:18.323Z,3.60
2022-12-09T22:09:10.993Z,3.60
2022-12-09T22:14:03.608Z,3.60
2022-12-09T22:18:57.805Z,3.60
2022-12-09T22:23:49.926Z,3.50
2022-12-09T22:28:42.412Z,3.50
2022-12-09T22:33:34.359Z,3.60
2022-12-09T22:38:27.301Z,3.60
2022-12-09T22:43:19.220Z,3.60
2022-12-09T22:48:11.154Z,3.70
2022-12-09T22:53:03.125Z,3.70
2022-12-09T22:57:55.062Z,3.70
2022-12-09T23:02:47.086Z,3.70
2022-12-09T23:07:39.070Z,3.70
2022-12-09T23:12:31.108Z,3.50
2022-12-09T23:17:23.101Z,3.50
2022-12-09T23:22:15.022Z,3.40
2022-12-09T23:27:07.601Z,3.40
2022-12-09T23:31:59.671Z,3.40
2022-12-09T23:36:52.983Z,3.40
2022-12-09T23:41:45.906Z,3.40
2022-12-09T23:46:38.516Z,3.30
2022-12-09T23:51:32.075Z,3.40
2022-12-09T23:56:29.075Z,3.30
